Atalaya, Peru
Current Conditions -  °F | °C
As of 6:00 PM on Tuesday 25 Nov 2014 (Local Time) from SPHO Reporting Station
Clear Clear  
Wind Chill: 77°   Ceiling: Unl
Heat Index: 78°   Visibility: 6mi
Dew Point: 45°   Wind: 6mph
Humidity: 32%   Direction: 30°NNE
Pressure: 30.09"   Gusts: NA
Location:  10.74°S, 73.76°W
Report Text: SPHO 252300Z 03005KT 350V050 CAVOK 25/07 Q1019 RMK PP000
Loading
Personal Weather Stations






























Interactive Weather Map New forecast layout! Learn more

10-Day Weather Forecast

Advertisements
Track Severe Weather on mobile